createdAt,value
2023-03-29T00:02:19.718Z,14.70
2023-03-29T00:04:47.033Z,14.70
2023-03-29T00:07:14.145Z,14.70
2023-03-29T00:09:41.552Z,14.70
2023-03-29T00:12:08.610Z,14.70
2023-03-29T00:14:35.474Z,14.70
2023-03-29T00:17:02.384Z,14.70
2023-03-29T00:19:29.258Z,14.70
2023-03-29T00:21:56.108Z,14.70
2023-03-29T00:24:23.882Z,14.70
2023-03-29T00:26:50.765Z,14.70
2023-03-29T00:29:17.586Z,14.70
2023-03-29T00:34:18.213Z,14.80
2023-03-29T00:36:45.229Z,14.70
2023-03-29T00:39:12.180Z,14.70
2023-03-29T00:41:39.020Z,14.70
2023-03-29T00:44:05.941Z,14.70
2023-03-29T00:46:34.917Z,14.70
2023-03-29T00:49:13.922Z,14.70
2023-03-29T00:51:42.632Z,14.70
2023-03-29T00:54:14.864Z,14.70
2023-03-29T00:56:44.687Z,14.60
2023-03-29T00:59:17.823Z,14.70
2023-03-29T01:01:54.869Z,14.70
2023-03-29T01:04:47.646Z,14.60
2023-03-29T01:07:24.803Z,14.60
2023-03-29T01:10:15.587Z,14.60
2023-03-29T01:12:51.223Z,14.60
2023-03-29T01:15:22.347Z,14.70
2023-03-29T01:17:51.672Z,14.70
2023-03-29T01:20:22.534Z,14.80
2023-03-29T01:23:22.242Z,14.70
2023-03-29T01:26:07.922Z,14.70
2023-03-29T01:28:39.681Z,14.70
2023-03-29T01:31:12.008Z,14.70
2023-03-29T01:33:48.858Z,14.80
2023-03-29T01:36:27.563Z,14.80
2023-03-29T01:38:57.829Z,14.80
2023-03-29T01:41:53.241Z,14.80
2023-03-29T01:44:31.862Z,14.90
2023-03-29T01:47:13.819Z,14.90
2023-03-29T01:49:49.637Z,14.80
2023-03-29T01:52:23.412Z,14.90
2023-03-29T01:55:20.290Z,14.80
2023-03-29T01:57:48.549Z,14.80
2023-03-29T02:00:19.191Z,14.90
2023-03-29T02:02:47.318Z,15.00
2023-03-29T02:05:16.216Z,15.00
2023-03-29T02:07:46.136Z,15.00
2023-03-29T02:10:14.616Z,15.00
2023-03-29T02:12:41.964Z,15.10
2023-03-29T02:15:15.212Z,15.10
2023-03-29T02:17:44.126Z,15.10
2023-03-29T02:20:20.666Z,15.10
2023-03-29T02:23:05.122Z,15.00
2023-03-29T02:25:32.670Z,15.10
2023-03-29T02:28:00.869Z,15.00
2023-03-29T02:30:34.005Z,15.00
2023-03-29T02:33:12.661Z,15.00
2023-03-29T02:35:53.526Z,15.10
2023-03-29T02:38:21.840Z,15.00
2023-03-29T02:40:48.826Z,15.10
2023-03-29T02:43:17.050Z,15.10
2023-03-29T02:45:44.926Z,15.10
2023-03-29T02:48:17.346Z,15.10
2023-03-29T02:50:48.578Z,15.10
2023-03-29T02:53:18.940Z,15.10
2023-03-29T02:55:46.900Z,15.10
2023-03-29T02:58:15.535Z,15.10
2023-03-29T03:00:48.668Z,15.10
2023-03-29T03:03:15.820Z,15.20
2023-03-29T03:05:43.502Z,15.10
2023-03-29T03:08:10.438Z,15.10
2023-03-29T03:10:38.140Z,15.10
2023-03-29T03:13:04.997Z,15.20
2023-03-29T03:15:35.815Z,15.20
2023-03-29T03:18:04.181Z,15.20
2023-03-29T03:20:31.287Z,15.30
2023-03-29T03:22:58.597Z,15.30
2023-03-29T03:25:25.701Z,15.30
2023-03-29T03:27:53.243Z,15.30
2023-03-29T03:30:21.073Z,15.30
2023-03-29T03:32:49.975Z,15.30
2023-03-29T03:35:16.900Z,15.30
2023-03-29T03:37:44.117Z,15.30
2023-03-29T03:40:14.319Z,15.30
2023-03-29T03:42:41.583Z,15.30
2023-03-29T03:45:09.853Z,15.30
2023-03-29T03:47:39.985Z,15.30
2023-03-29T03:50:08.632Z,15.40
2023-03-29T03:52:35.623Z,15.30
2023-03-29T03:55:03.049Z,15.30
2023-03-29T03:57:30.221Z,15.30
2023-03-29T03:59:57.562Z,15.30
2023-03-29T04:02:24.638Z,15.30
2023-03-29T04:04:51.572Z,15.30
2023-03-29T04:07:18.717Z,15.30
2023-03-29T04:09:45.981Z,15.20
2023-03-29T04:12:12.869Z,15.10
2023-03-29T04:14:39.754Z,15.10
2023-03-29T04:17:06.827Z,15.10
2023-03-29T04:19:33.826Z,15.10
2023-03-29T04:22:00.791Z,15.00
2023-03-29T04:24:27.760Z,15.10
2023-03-29T04:26:54.656Z,15.10
2023-03-29T04:29:21.506Z,15.10
2023-03-29T04:31:48.529Z,15.10
2023-03-29T04:34:15.524Z,15.10
2023-03-29T04:36:43.559Z,15.10
2023-03-29T04:39:10.660Z,15.10
2023-03-29T04:41:37.508Z,15.10
2023-03-29T04:44:04.481Z,15.10
2023-03-29T04:46:32.480Z,15.10
2023-03-29T04:48:59.975Z,15.00
2023-03-29T04:51:27.549Z,15.00
2023-03-29T04:53:54.477Z,15.00
2023-03-29T04:56:23.230Z,15.00
2023-03-29T04:58:51.020Z,15.00
2023-03-29T05:01:18.021Z,15.00
2023-03-29T05:03:45.025Z,14.90
2023-03-29T05:06:12.170Z,15.00
2023-03-29T05:08:40.832Z,15.00
2023-03-29T05:11:10.300Z,15.10
2023-03-29T05:13:37.608Z,15.10
2023-03-29T05:16:05.326Z,15.10
2023-03-29T05:18:32.589Z,15.10
2023-03-29T05:21:00.229Z,15.20
2023-03-29T05:23:27.774Z,15.10
2023-03-29T05:25:54.956Z,15.20
2023-03-29T05:28:22.483Z,15.30
2023-03-29T05:31:04.559Z,15.30
2023-03-29T05:33:32.012Z,15.40
2023-03-29T05:36:04.844Z,15.50
2023-03-29T05:38:32.881Z,15.60
2023-03-29T05:41:00.611Z,15.60
2023-03-29T05:43:28.224Z,15.60
2023-03-29T05:45:55.959Z,15.70
2023-03-29T05:48:24.537Z,15.70
2023-03-29T05:50:53.933Z,15.60
2023-03-29T05:53:22.833Z,15.70
2023-03-29T05:55:51.268Z,15.70
2023-03-29T05:58:20.591Z,15.70
2023-03-29T06:00:49.780Z,15.70
2023-03-29T06:03:21.071Z,15.70
2023-03-29T06:05:56.289Z,15.70
2023-03-29T06:08:23.434Z,15.70
2023-03-29T06:10:50.285Z,15.70
2023-03-29T06:13:17.443Z,15.80
2023-03-29T06:15:45.194Z,15.80
2023-03-29T06:18:12.521Z,15.80
2023-03-29T06:20:39.457Z,15.80
2023-03-29T06:23:06.302Z,15.80
2023-03-29T06:25:34.210Z,15.80
2023-03-29T06:28:01.241Z,15.80
2023-03-29T06:30:28.426Z,15.90
2023-03-29T06:32:55.632Z,15.80
2023-03-29T06:35:22.488Z,15.90
2023-03-29T06:37:53.646Z,15.90
2023-03-29T06:40:21.315Z,15.90
2023-03-29T06:42:48.660Z,15.90
2023-03-29T06:45:16.042Z,15.90
2023-03-29T06:47:42.972Z,15.90
2023-03-29T06:50:11.601Z,16.00
2023-03-29T06:52:38.593Z,16.00
2023-03-29T06:55:07.831Z,16.00
2023-03-29T06:57:34.708Z,16.00
2023-03-29T07:00:01.803Z,16.10
2023-03-29T07:02:29.067Z,16.10
2023-03-29T07:04:56.287Z,16.20
2023-03-29T07:07:27.555Z,16.20
2023-03-29T07:09:55.462Z,16.30
2023-03-29T07:12:23.082Z,16.20
2023-03-29T07:14:50.072Z,16.30
2023-03-29T07:17:16.993Z,16.20
2023-03-29T07:19:43.930Z,16.30
2023-03-29T07:22:11.302Z,16.30
2023-03-29T07:24:38.204Z,16.30
2023-03-29T07:27:05.242Z,16.30
2023-03-29T07:29:32.849Z,16.30
2023-03-29T07:32:00.234Z,16.40
2023-03-29T07:34:27.196Z,16.40
2023-03-29T07:36:54.654Z,16.50
2023-03-29T07:39:22.341Z,16.50
2023-03-29T07:41:49.196Z,16.50
2023-03-29T07:44:18.301Z,16.50
2023-03-29T07:46:45.237Z,16.60
2023-03-29T07:49:12.037Z,16.60
2023-03-29T07:51:38.872Z,16.60
2023-03-29T07:54:06.401Z,16.50
2023-03-29T07:56:33.287Z,16.50
2023-03-29T07:59:00.130Z,16.50
2023-03-29T08:01:26.965Z,16.60
2023-03-29T08:03:53.849Z,16.60
2023-03-29T08:06:21.549Z,16.70
2023-03-29T08:08:48.551Z,16.70
2023-03-29T08:11:15.633Z,16.80
2023-03-29T08:13:42.624Z,16.80
2023-03-29T08:16:09.752Z,16.90
2023-03-29T08:18:36.570Z,17.00
2023-03-29T08:21:04.853Z,16.90
2023-03-29T08:23:32.158Z,17.00
2023-03-29T08:25:59.143Z,17.00
2023-03-29T08:28:26.150Z,17.00
2023-03-29T08:30:53.557Z,17.10
2023-03-29T08:33:20.451Z,17.10
2023-03-29T08:35:47.519Z,17.10
2023-03-29T08:38:14.907Z,17.10
2023-03-29T08:40:41.934Z,17.20
2023-03-29T08:43:47.568Z,17.20
2023-03-29T08:46:34.412Z,17.20
2023-03-29T08:49:04.601Z,17.30
2023-03-29T08:51:49.807Z,17.40
2023-03-29T08:54:27.838Z,17.40
2023-03-29T08:57:02.147Z,17.50
2023-03-29T08:59:32.008Z,17.60
2023-03-29T09:02:02.376Z,17.60
2023-03-29T09:04:33.084Z,17.70
2023-03-29T09:07:00.022Z,17.80
2023-03-29T09:09:33.216Z,17.80
2023-03-29T09:12:06.098Z,17.80
2023-03-29T09:14:41.466Z,17.90
2023-03-29T09:17:17.124Z,17.90
2023-03-29T09:19:51.449Z,17.90
2023-03-29T09:22:49.051Z,17.90
2023-03-29T09:25:53.561Z,18.00
2023-03-29T09:28:44.450Z,18.00
2023-03-29T09:31:21.553Z,18.00
2023-03-29T09:34:15.692Z,18.00
2023-03-29T09:36:52.852Z,18.00
2023-03-29T09:39:22.234Z,18.00
2023-03-29T09:42:05.218Z,18.00
2023-03-29T09:44:38.574Z,18.00
2023-03-29T09:47:19.716Z,18.10
2023-03-29T09:49:49.981Z,18.10
2023-03-29T09:52:19.936Z,18.20
2023-03-29T09:54:46.901Z,18.20
2023-03-29T09:57:16.886Z,18.30
2023-03-29T09:59:46.795Z,18.40
2023-03-29T10:02:14.563Z,18.60
2023-03-29T10:04:42.938Z,18.70
2023-03-29T10:07:18.850Z,18.90
2023-03-29T10:09:46.642Z,19.00
2023-03-29T10:12:14.778Z,19.10
2023-03-29T10:14:46.445Z,19.20
2023-03-29T10:17:24.620Z,19.20
2023-03-29T10:20:04.561Z,19.20
2023-03-29T10:22:37.859Z,19.40
2023-03-29T10:25:12.701Z,19.50
2023-03-29T10:27:42.568Z,19.40
2023-03-29T10:30:13.044Z,19.40
2023-03-29T10:32:41.376Z,19.50
2023-03-29T10:35:09.405Z,19.60
2023-03-29T10:37:41.531Z,19.60
2023-03-29T10:40:36.907Z,19.60
2023-03-29T10:43:26.104Z,19.70
2023-03-29T10:45:56.092Z,19.90
2023-03-29T10:48:31.199Z,20.00
2023-03-29T10:51:01.027Z,20.00
2023-03-29T10:53:33.754Z,20.00
2023-03-29T10:56:16.254Z,20.00
2023-03-29T10:59:22.857Z,20.00
2023-03-29T11:02:13.726Z,19.90
2023-03-29T11:05:00.419Z,19.90
2023-03-29T11:07:35.719Z,19.90
2023-03-29T11:10:11.772Z,20.00
2023-03-29T11:13:13.848Z,20.10
2023-03-29T11:15:49.885Z,20.20
2023-03-29T11:18:50.396Z,20.20
2023-03-29T11:21:27.141Z,20.20
2023-03-29T11:24:15.505Z,20.30
2023-03-29T11:27:28.780Z,20.30
2023-03-29T11:30:18.188Z,20.30
2023-03-29T11:32:53.200Z,20.30
2023-03-29T11:35:38.680Z,20.30
2023-03-29T11:38:16.001Z,20.30
2023-03-29T11:41:01.349Z,20.30
2023-03-29T11:43:37.555Z,20.30
2023-03-29T11:46:19.006Z,20.40
2023-03-29T11:49:10.196Z,20.50
2023-03-29T11:52:09.087Z,20.50
2023-03-29T11:54:41.046Z,20.60
2023-03-29T11:57:20.257Z,20.70
2023-03-29T12:00:22.858Z,20.80
2023-03-29T12:03:15.055Z,20.80
2023-03-29T12:06:04.492Z,20.80
2023-03-29T12:08:37.389Z,20.90
2023-03-29T12:11:33.561Z,21.00
2023-03-29T12:14:14.547Z,21.00
2023-03-29T12:16:52.192Z,21.10
2023-03-29T12:19:25.810Z,21.10
2023-03-29T12:21:56.089Z,21.30
2023-03-29T12:24:25.400Z,21.40
2023-03-29T12:27:07.405Z,21.30
2023-03-29T12:29:45.053Z,21.40
2023-03-29T12:32:43.269Z,21.50
2023-03-29T12:35:29.069Z,21.40
2023-03-29T12:38:12.707Z,21.40
2023-03-29T12:40:45.684Z,21.20
2023-03-29T12:43:23.298Z,21.30
2023-03-29T12:45:55.207Z,21.40
2023-03-29T12:48:26.769Z,21.50
2023-03-29T12:51:00.783Z,21.50
2023-03-29T12:53:34.108Z,21.60
2023-03-29T12:56:01.069Z,21.60
2023-03-29T12:58:40.026Z,21.70
2023-03-29T13:01:08.855Z,21.80
2023-03-29T13:03:48.426Z,21.80
2023-03-29T13:06:31.254Z,21.90
2023-03-29T13:09:29.758Z,21.90
2023-03-29T13:12:04.732Z,21.90
2023-03-29T13:14:35.259Z,21.90
2023-03-29T13:17:26.493Z,21.90
2023-03-29T13:20:03.420Z,22.00
2023-03-29T13:22:47.946Z,22.00
2023-03-29T13:25:30.730Z,22.00
2023-03-29T13:28:06.786Z,22.00
2023-03-29T13:30:58.467Z,22.10
2023-03-29T13:34:01.802Z,22.10
2023-03-29T13:36:59.927Z,22.00
2023-03-29T13:39:33.484Z,22.10
2023-03-29T13:42:37.034Z,22.10
2023-03-29T13:45:16.023Z,22.10
2023-03-29T13:47:54.994Z,22.20
2023-03-29T13:50:38.799Z,22.20
2023-03-29T13:53:24.965Z,22.30
2023-03-29T13:55:54.125Z,22.30
2023-03-29T13:58:43.504Z,22.30
2023-03-29T14:01:45.745Z,22.30
2023-03-29T14:04:22.508Z,22.40
2023-03-29T14:06:53.990Z,22.50
2023-03-29T14:09:24.537Z,22.50
2023-03-29T14:11:51.611Z,22.50
2023-03-29T14:14:24.703Z,22.40
2023-03-29T14:16:51.876Z,22.40
2023-03-29T14:19:26.336Z,22.40
2023-03-29T14:21:53.436Z,22.50
2023-03-29T14:24:25.973Z,22.40
2023-03-29T14:26:54.278Z,22.50
2023-03-29T14:29:23.494Z,22.60
2023-03-29T14:31:52.034Z,22.70
2023-03-29T14:34:19.404Z,22.70
2023-03-29T14:36:48.998Z,22.80
2023-03-29T14:39:21.732Z,22.80
2023-03-29T14:41:58.852Z,22.80
2023-03-29T14:44:30.003Z,22.70
2023-03-29T14:46:57.756Z,22.70
2023-03-29T14:49:24.774Z,22.70
2023-03-29T14:51:52.878Z,22.70
2023-03-29T14:54:32.953Z,22.60
2023-03-29T14:57:03.520Z,22.60
2023-03-29T14:59:42.911Z,22.60
2023-03-29T15:02:24.035Z,22.50
2023-03-29T15:05:05.876Z,22.50
2023-03-29T15:07:34.719Z,22.30
2023-03-29T15:10:05.083Z,22.20
2023-03-29T15:12:33.460Z,22.30
2023-03-29T15:15:02.611Z,22.40
2023-03-29T15:17:50.135Z,22.40
2023-03-29T15:20:48.324Z,22.50
2023-03-29T15:23:15.324Z,22.50
2023-03-29T15:25:54.387Z,22.60
2023-03-29T15:28:31.064Z,22.70
2023-03-29T15:33:36.086Z,22.60
2023-03-29T15:36:05.099Z,22.70
2023-03-29T15:38:43.222Z,22.80
2023-03-29T15:41:11.711Z,22.90
2023-03-29T15:43:38.649Z,22.90
2023-03-29T15:46:05.905Z,22.90
2023-03-29T15:48:33.833Z,23.00
2023-03-29T15:51:05.448Z,22.90
2023-03-29T15:53:33.838Z,23.00
2023-03-29T15:56:02.688Z,23.00
2023-03-29T15:58:31.948Z,22.90
2023-03-29T16:01:37.684Z,22.80
2023-03-29T16:04:07.507Z,22.90
2023-03-29T16:06:35.127Z,22.90
2023-03-29T16:09:02.108Z,23.00
2023-03-29T16:11:29.004Z,23.00
2023-03-29T16:13:56.913Z,23.00
2023-03-29T16:16:24.321Z,22.90
2023-03-29T16:18:51.513Z,22.90
2023-03-29T16:21:19.898Z,22.80
2023-03-29T16:23:47.336Z,22.80
2023-03-29T16:26:19.091Z,22.80
2023-03-29T16:28:46.161Z,22.80
2023-03-29T16:31:14.224Z,22.70
2023-03-29T16:33:41.541Z,22.70
2023-03-29T16:36:09.708Z,22.70
2023-03-29T16:38:37.091Z,22.60
2023-03-29T16:41:04.155Z,22.60
2023-03-29T16:43:31.663Z,22.50
2023-03-29T16:45:58.626Z,22.50
2023-03-29T16:48:27.071Z,22.50
2023-03-29T16:50:54.033Z,22.50
2023-03-29T16:53:21.705Z,22.40
2023-03-29T16:55:48.828Z,22.40
2023-03-29T16:58:16.244Z,22.40
2023-03-29T17:00:46.392Z,22.40
2023-03-29T17:03:15.403Z,22.40
2023-03-29T17:05:50.286Z,22.40
2023-03-29T17:08:18.483Z,22.40
2023-03-29T17:10:45.693Z,22.30
2023-03-29T17:13:13.297Z,22.30
2023-03-29T17:15:40.316Z,22.30
2023-03-29T17:18:07.995Z,22.20
2023-03-29T17:20:34.904Z,22.20
2023-03-29T17:23:01.775Z,22.20
2023-03-29T17:25:28.798Z,22.20
2023-03-29T17:27:55.691Z,22.20
2023-03-29T17:30:22.757Z,22.10
2023-03-29T17:32:49.744Z,22.10
2023-03-29T17:35:16.668Z,22.10
2023-03-29T17:37:43.773Z,22.10
2023-03-29T17:40:14.193Z,22.10
2023-03-29T17:42:48.731Z,22.00
2023-03-29T17:45:16.282Z,22.00
2023-03-29T17:47:43.308Z,22.00
2023-03-29T17:50:12.768Z,22.00
2023-03-29T17:52:39.861Z,22.00
2023-03-29T17:55:11.336Z,22.00
2023-03-29T17:57:38.982Z,22.00
2023-03-29T18:00:08.183Z,22.00
2023-03-29T18:02:35.565Z,21.90
2023-03-29T18:05:04.250Z,21.90
2023-03-29T18:07:31.737Z,21.90
2023-03-29T18:09:58.658Z,21.90
2023-03-29T18:12:26.232Z,21.80
2023-03-29T18:14:53.119Z,21.80
2023-03-29T18:17:20.401Z,21.80
2023-03-29T18:19:47.309Z,21.80
2023-03-29T18:22:14.320Z,21.80
2023-03-29T18:24:41.331Z,21.70
2023-03-29T18:27:08.320Z,21.70
2023-03-29T18:29:35.811Z,21.70
2023-03-29T18:32:03.089Z,21.70
2023-03-29T18:34:30.790Z,21.60
2023-03-29T18:36:57.853Z,21.60
2023-03-29T18:39:24.886Z,21.60
2023-03-29T18:41:52.028Z,21.60
2023-03-29T18:44:19.101Z,21.60
2023-03-29T18:46:46.135Z,21.60
2023-03-29T18:49:13.174Z,21.50
2023-03-29T18:51:40.260Z,21.50
2023-03-29T18:54:08.905Z,21.50
2023-03-29T18:56:36.020Z,21.50
2023-03-29T18:59:06.172Z,21.40
2023-03-29T19:01:33.706Z,21.40
2023-03-29T19:04:00.823Z,21.40
2023-03-29T19:06:28.150Z,21.30
2023-03-29T19:08:58.212Z,21.40
2023-03-29T19:11:26.501Z,21.40
2023-03-29T19:13:55.330Z,21.30
2023-03-29T19:16:22.494Z,21.30
2023-03-29T19:18:49.568Z,21.30
2023-03-29T19:21:16.460Z,21.30
2023-03-29T19:23:43.614Z,21.30
2023-03-29T19:26:11.519Z,21.30
2023-03-29T19:28:38.582Z,21.20
2023-03-29T19:31:05.769Z,21.20
2023-03-29T19:33:32.986Z,21.20
2023-03-29T19:35:59.969Z,21.20
2023-03-29T19:38:27.124Z,21.20
2023-03-29T19:40:54.109Z,21.20
2023-03-29T19:43:21.608Z,21.20
2023-03-29T19:45:50.598Z,21.20
2023-03-29T19:48:23.542Z,21.20
2023-03-29T19:50:51.558Z,21.10
2023-03-29T19:53:18.873Z,21.20
2023-03-29T19:55:46.123Z,21.10
2023-03-29T19:58:13.562Z,21.10
2023-03-29T20:00:41.929Z,21.00
2023-03-29T20:03:10.162Z,21.10
2023-03-29T20:05:38.975Z,21.00
2023-03-29T20:08:07.050Z,21.10
2023-03-29T20:10:35.581Z,21.10
2023-03-29T20:13:03.299Z,21.00
2023-03-29T20:15:30.630Z,21.00
2023-03-29T20:17:59.853Z,21.00
2023-03-29T20:20:27.628Z,21.00
2023-03-29T20:22:58.410Z,20.90
2023-03-29T20:25:26.017Z,20.90
2023-03-29T20:27:53.615Z,20.90
2023-03-29T20:30:20.877Z,20.90
2023-03-29T20:32:48.140Z,20.90
2023-03-29T20:35:15.527Z,20.80
2023-03-29T20:37:42.706Z,20.80
2023-03-29T20:40:11.395Z,20.80
2023-03-29T20:42:38.833Z,20.80
2023-03-29T20:45:08.026Z,20.70
2023-03-29T20:47:42.627Z,20.70
2023-03-29T20:50:10.821Z,20.70
2023-03-29T20:52:38.122Z,20.70
2023-03-29T20:55:05.839Z,20.60
2023-03-29T20:57:33.008Z,20.60
2023-03-29T21:00:00.338Z,20.50
2023-03-29T21:02:27.512Z,20.50
2023-03-29T21:04:54.924Z,20.50
2023-03-29T21:07:22.578Z,20.50
2023-03-29T21:09:50.502Z,20.50
2023-03-29T21:12:17.929Z,20.50
2023-03-29T21:14:45.006Z,20.50
2023-03-29T21:17:14.641Z,20.40
2023-03-29T21:19:42.000Z,20.40
2023-03-29T21:22:09.030Z,20.40
2023-03-29T21:24:38.928Z,20.50
2023-03-29T21:27:07.160Z,20.50
2023-03-29T21:29:34.012Z,20.50
2023-03-29T21:32:02.939Z,20.50
2023-03-29T21:34:30.303Z,20.60
2023-03-29T21:36:58.226Z,20.60
2023-03-29T21:39:27.216Z,20.50
2023-03-29T21:41:54.549Z,20.50
2023-03-29T21:44:21.640Z,20.50
2023-03-29T21:46:48.531Z,20.60
2023-03-29T21:49:15.509Z,20.60
2023-03-29T21:51:42.374Z,20.60
2023-03-29T21:54:10.852Z,20.50
2023-03-29T21:56:37.901Z,20.50
2023-03-29T21:59:05.073Z,20.40
2023-03-29T22:01:32.172Z,20.50
2023-03-29T22:03:59.204Z,20.50
2023-03-29T22:06:26.492Z,20.50
2023-03-29T22:08:53.372Z,20.50
2023-03-29T22:11:20.339Z,20.50
2023-03-29T22:13:47.335Z,20.50
2023-03-29T22:16:16.847Z,20.50
2023-03-29T22:18:49.273Z,20.50
2023-03-29T22:21:25.363Z,20.50
2023-03-29T22:23:57.962Z,20.50
2023-03-29T22:26:28.196Z,20.50
2023-03-29T22:28:56.490Z,20.40
2023-03-29T22:31:24.661Z,20.40
2023-03-29T22:33:51.587Z,20.40
2023-03-29T22:36:24.450Z,20.40
2023-03-29T22:38:52.054Z,20.40
2023-03-29T22:41:20.339Z,20.40
2023-03-29T22:43:47.382Z,20.40
2023-03-29T22:46:14.722Z,20.40
2023-03-29T22:48:41.732Z,20.40
2023-03-29T22:51:08.638Z,20.40
2023-03-29T22:53:35.881Z,20.40
2023-03-29T22:56:03.538Z,20.40
2023-03-29T22:58:30.667Z,20.40
2023-03-29T23:00:58.218Z,20.40
2023-03-29T23:03:25.352Z,20.40
2023-03-29T23:05:57.787Z,20.40
2023-03-29T23:08:25.761Z,20.40
2023-03-29T23:10:52.893Z,20.50
2023-03-29T23:13:24.239Z,20.40
2023-03-29T23:15:54.085Z,20.40
2023-03-29T23:18:23.483Z,20.40
2023-03-29T23:20:53.013Z,20.40
2023-03-29T23:23:20.394Z,20.30
2023-03-29T23:25:49.116Z,20.20
2023-03-29T23:28:21.484Z,20.20
2023-03-29T23:31:03.202Z,20.20
2023-03-29T23:33:35.973Z,20.30
2023-03-29T23:36:05.131Z,20.40
2023-03-29T23:38:34.432Z,20.60
2023-03-29T23:41:03.931Z,20.70
2023-03-29T23:43:33.540Z,20.80
2023-03-29T23:46:05.678Z,20.90
2023-03-29T23:48:34.304Z,20.90
2023-03-29T23:51:02.938Z,21.00
2023-03-29T23:53:31.303Z,21.00
2023-03-29T23:56:00.418Z,21.10
2023-03-29T23:58:37.932Z,21.10
